Time;durP1;ratioP1;P1;durP2;ratioP2;P2;SDS_P1;SDS_P2;PMS_P1;PMS_P2;Temp;Humidity;BMP_temperature;BMP_pressure;BME280_temperature;BME280_humidity;BME280_pressure;Samples;Min_cycle;Max_cycle;Signal;HPM_P1;HPM_P2
2024/01/17 00:01:58;;;;;;;;;;;;;;;19.26;17.16;97468.09;5048733;28;19921;-85
2024/01/17 00:04:24;;;;;;;;;;;;;;;19.39;16.94;97463.59;5042995;28;19971;-85
2024/01/17 00:06:51;;;;;;;;;;;;;;;19.69;16.26;97458.03;5047770;28;19971;-85
2024/01/17 00:09:18;;;;;;;;;;;;;;;19.56;16.02;97462.56;5081351;28;19965;-85
2024/01/17 00:11:44;;;;;;;;;;;;;;;19.47;15.79;97465.06;5088552;28;19924;-84
2024/01/17 00:14:11;;;;;;;;;;;;;;;19.30;16.24;97466.84;5089152;28;19920;-84
2024/01/17 00:16:37;;;;;;;;;;;;;;;19.35;16.40;97465.59;5093156;28;19939;-85
2024/01/17 00:19:03;;;;;;;;;;;;;;;19.41;15.80;97461.19;5090689;28;19924;-84
2024/01/17 00:21:29;;;;;;;;;;;;;;;19.47;15.72;97465.06;5088809;28;19919;-85
2024/01/17 00:23:55;;;;;;;;;;;;;;;19.20;16.02;97444.72;5092490;28;20045;-85
2024/01/17 00:26:21;;;;;;;;;;;;;;;18.42;16.98;97451.09;5092628;28;20006;-84
2024/01/17 00:28:47;;;;;;;;;;;;;;;18.15;17.58;97447.38;5074801;28;19912;-85
2024/01/17 00:31:13;;;;;;;;;;;;;;;18.32;16.89;97437.31;5090297;28;19927;-84
2024/01/17 00:33:40;;;;;;;;;;;;;;;18.69;16.86;97439.34;5089850;28;19927;-85
2024/01/17 00:36:06;;;;;;;;;;;;;;;18.89;16.63;97434.75;5085778;28;19924;-84
2024/01/17 00:38:32;;;;;;;;;;;;;;;18.80;17.07;97437.25;5087827;28;20383;-84
2024/01/17 00:40:58;;;;;;;;;;;;;;;18.83;16.98;97433.66;5091773;28;20284;-84
2024/01/17 00:43:24;;;;;;;;;;;;;;;18.81;16.67;97436.81;5089745;28;19921;-84
2024/01/17 00:45:50;;;;;;;;;;;;;;;19.06;16.64;97431.00;5089876;28;19920;-84
2024/01/17 00:48:18;;;;;;;;;;;;;;;18.78;17.14;97434.09;5089398;28;20390;-84
2024/01/17 00:50:44;;;;;;;;;;;;;;;18.70;17.39;97432.56;5093347;28;20340;-84
2024/01/17 00:53:10;;;;;;;;;;;;;;;18.28;17.43;97431.78;5092272;28;19927;-84
2024/01/17 00:55:36;;;;;;;;;;;;;;;18.62;17.37;97426.31;5092982;28;19916;-84
2024/01/17 00:58:03;;;;;;;;;;;;;;;18.84;17.14;97426.88;5091158;28;20405;-84
2024/01/17 01:00:29;;;;;;;;;;;;;;;18.58;17.00;97431.13;5092712;28;20406;-85
2024/01/17 01:02:55;;;;;;;;;;;;;;;18.77;17.12;97430.50;5092143;28;19920;-84
2024/01/17 01:05:21;;;;;;;;;;;;;;;18.95;16.91;97433.88;5093186;28;19916;-85
2024/01/17 01:07:47;;;;;;;;;;;;;;;19.14;16.44;97430.47;5091757;28;20375;-85
2024/01/17 01:10:13;;;;;;;;;;;;;;;19.28;16.57;97433.06;5093760;28;20002;-85
2024/01/17 01:12:39;;;;;;;;;;;;;;;19.28;16.29;97429.50;5092702;28;19917;-84
2024/01/17 01:15:06;;;;;;;;;;;;;;;18.94;16.23;97418.41;5092033;28;19920;-84
2024/01/17 01:17:32;;;;;;;;;;;;;;;19.11;16.16;97424.97;5095641;28;19924;-85
2024/01/17 01:19:58;;;;;;;;;;;;;;;18.94;16.47;97417.63;5095946;28;20398;-84
2024/01/17 01:22:24;;;;;;;;;;;;;;;19.00;15.74;97413.94;5096569;28;19922;-85
2024/01/17 01:24:50;;;;;;;;;;;;;;;19.06;16.55;97417.06;5096186;28;19959;-84
2024/01/17 01:27:16;;;;;;;;;;;;;;;19.35;16.24;97404.34;5094543;28;19916;-84
2024/01/17 01:29:42;;;;;;;;;;;;;;;19.09;16.62;97421.81;5091495;28;19947;-84
2024/01/17 01:32:08;;;;;;;;;;;;;;;18.89;16.43;97409.72;5060643;28;20330;-84
2024/01/17 01:34:34;;;;;;;;;;;;;;;18.81;16.75;97406.22;5076671;28;20287;-84
2024/01/17 01:37:03;;;;;;;;;;;;;;;19.06;16.89;97406.75;5080121;28;19921;-84
2024/01/17 01:39:29;;;;;;;;;;;;;;;19.32;16.61;97402.44;5091685;28;19916;-84
2024/01/17 01:41:55;;;;;;;;;;;;;;;19.43;16.70;97396.72;5076312;28;20299;-84
2024/01/17 01:44:21;;;;;;;;;;;;;;;19.66;16.29;97394.78;5096607;28;19917;-84
2024/01/17 01:46:48;;;;;;;;;;;;;;;18.90;17.06;97398.19;5095923;28;19928;-84
2024/01/17 01:49:15;;;;;;;;;;;;;;;18.65;17.35;97391.34;5093387;28;19962;-84
2024/01/17 01:51:44;;;;;;;;;;;;;;;18.88;17.17;97381.13;5084649;28;20009;-85
2024/01/17 01:54:13;;;;;;;;;;;;;;;19.14;17.00;97385.94;5088202;28;20330;-85
2024/01/17 01:56:40;;;;;;;;;;;;;;;19.61;16.46;97374.97;5079574;28;19920;-85
2024/01/17 01:59:07;;;;;;;;;;;;;;;19.95;16.14;97370.84;5089687;28;19945;-85
2024/01/17 02:01:33;;;;;;;;;;;;;;;20.08;15.59;97382.19;5091000;28;19927;-84
2024/01/17 02:04:00;;;;;;;;;;;;;;;20.13;15.76;97378.91;5094604;28;19920;-84
2024/01/17 02:06:30;;;;;;;;;;;;;;;20.02;15.52;97373.50;5092814;28;20021;-85
2024/01/17 02:08:56;;;;;;;;;;;;;;;19.86;16.00;97373.38;5057672;28;20299;-85
2024/01/17 02:11:22;;;;;;;;;;;;;;;19.81;15.60;97371.06;5079047;28;19924;-86
2024/01/17 02:13:49;;;;;;;;;;;;;;;19.45;16.12;97372.03;5094522;28;20380;-86
2024/01/17 02:16:15;;;;;;;;;;;;;;;19.18;16.37;97374.78;5089973;28;20350;-85
2024/01/17 02:18:44;;;;;;;;;;;;;;;18.85;16.82;97373.63;5094344;28;19920;-85
2024/01/17 02:21:11;;;;;;;;;;;;;;;19.07;16.70;97365.78;5088756;28;19973;-85
2024/01/17 02:23:37;;;;;;;;;;;;;;;18.70;16.98;97371.41;5093062;28;19920;-85
2024/01/17 02:26:03;;;;;;;;;;;;;;;18.80;16.60;97374.06;5063202;28;19923;-85
2024/01/17 02:28:30;;;;;;;;;;;;;;;18.82;16.50;97373.66;5091767;28;19927;-85
2024/01/17 02:30:56;;;;;;;;;;;;;;;18.33;17.06;97367.41;5086472;28;19920;-85
2024/01/17 02:33:22;;;;;;;;;;;;;;;18.39;17.26;97368.53;5061861;28;19920;-85
2024/01/17 02:35:48;;;;;;;;;;;;;;;18.52;17.38;97361.28;5082447;28;19925;-85
2024/01/17 02:38:15;;;;;;;;;;;;;;;18.63;17.12;97356.41;5091015;28;19976;-85
2024/01/17 02:40:41;;;;;;;;;;;;;;;18.73;17.23;97351.13;5083961;28;19920;-85
2024/01/17 02:43:07;;;;;;;;;;;;;;;18.54;17.23;97353.31;5084570;28;20287;-85
2024/01/17 02:45:33;;;;;;;;;;;;;;;18.46;17.02;97346.25;5086044;28;19920;-85
2024/01/17 02:47:59;;;;;;;;;;;;;;;18.78;17.00;97353.44;5091259;28;20392;-84
2024/01/17 02:50:26;;;;;;;;;;;;;;;18.95;16.81;97344.09;5088742;28;20022;-84
2024/01/17 02:52:52;;;;;;;;;;;;;;;19.15;16.59;97336.66;5092517;28;19931;-84
2024/01/17 02:55:19;;;;;;;;;;;;;;;19.00;16.67;97329.69;5090584;28;20309;-84
2024/01/17 02:57:45;;;;;;;;;;;;;;;18.98;16.63;97327.34;5085072;28;20387;-84
2024/01/17 03:00:11;;;;;;;;;;;;;;;19.01;16.56;97317.38;5094356;28;19920;-84
2024/01/17 03:02:37;;;;;;;;;;;;;;;18.63;16.73;97319.47;5088973;28;20007;-84
2024/01/17 03:05:04;;;;;;;;;;;;;;;18.57;16.86;97323.91;5091607;28;19959;-84
2024/01/17 03:07:30;;;;;;;;;;;;;;;18.86;16.69;97316.78;5089554;28;20414;-84
2024/01/17 03:09:56;;;;;;;;;;;;;;;18.68;16.88;97310.66;5094293;28;19920;-83
2024/01/17 03:12:22;;;;;;;;;;;;;;;18.93;16.75;97308.34;5084506;28;20019;-85
2024/01/17 03:14:48;;;;;;;;;;;;;;;19.00;16.82;97313.00;5091590;28;19920;-85
2024/01/17 03:17:15;;;;;;;;;;;;;;;18.45;17.02;97316.91;5073376;28;20296;-85
2024/01/17 03:19:45;;;;;;;;;;;;;;;18.69;17.03;97311.47;5081598;28;19927;-85
2024/01/17 03:22:12;;;;;;;;;;;;;;;18.50;17.20;97312.88;5088492;28;20374;-84
2024/01/17 03:24:38;;;;;;;;;;;;;;;18.47;17.17;97313.69;5090282;28;19920;-84
2024/01/17 03:27:05;;;;;;;;;;;;;;;18.05;17.21;97314.91;5093659;28;19959;-85
2024/01/17 03:29:31;;;;;;;;;;;;;;;17.62;17.40;97306.19;5094332;28;19922;-84
2024/01/17 03:31:57;;;;;;;;;;;;;;;17.54;17.88;97312.22;5081698;28;20010;-85
2024/01/17 03:34:23;;;;;;;;;;;;;;;17.73;17.90;97304.13;5074590;28;19975;-85
2024/01/17 03:36:49;;;;;;;;;;;;;;;18.22;17.67;97310.38;5090542;28;19916;-84
2024/01/17 03:39:15;;;;;;;;;;;;;;;18.48;17.04;97302.16;5087535;28;20393;-84
2024/01/17 03:41:41;;;;;;;;;;;;;;;17.87;17.62;97301.22;5093564;28;19927;-84
2024/01/17 03:44:07;;;;;;;;;;;;;;;17.66;17.38;97295.06;5088858;28;19912;-84
2024/01/17 03:46:33;;;;;;;;;;;;;;;16.70;18.44;97303.22;5089853;28;19927;-84
2024/01/17 03:48:59;;;;;;;;;;;;;;;17.31;18.32;97292.53;5087517;28;20386;-85
2024/01/17 03:51:25;;;;;;;;;;;;;;;17.59;17.78;97300.69;5090392;28;19924;-86
2024/01/17 03:53:52;;;;;;;;;;;;;;;16.62;18.93;97309.97;5093307;28;20015;-85
2024/01/17 03:56:18;;;;;;;;;;;;;;;15.27;20.26;97308.56;5094070;28;20015;-85
2024/01/17 03:58:44;;;;;;;;;;;;;;;16.19;19.18;97301.00;5093738;28;19951;-85
2024/01/17 04:01:10;;;;;;;;;;;;;;;17.14;18.50;97297.81;5093900;28;20334;-85
2024/01/17 04:03:37;;;;;;;;;;;;;;;17.82;17.64;97298.88;5094004;28;19923;-85
2024/01/17 04:06:03;;;;;;;;;;;;;;;18.42;17.52;97295.47;5093571;28;20414;-85
2024/01/17 04:08:29;;;;;;;;;;;;;;;18.51;17.26;97289.41;5062803;28;19921;-85
2024/01/17 04:10:55;;;;;;;;;;;;;;;18.61;17.00;97282.94;5068313;28;19924;-85
2024/01/17 04:13:21;;;;;;;;;;;;;;;18.98;16.67;97288.41;5064126;28;20357;-85
2024/01/17 04:15:47;;;;;;;;;;;;;;;19.21;16.20;97287.66;5072830;28;19927;-85
2024/01/17 04:18:13;;;;;;;;;;;;;;;19.37;16.20;97285.06;5070651;28;19927;-84
2024/01/17 04:20:39;;;;;;;;;;;;;;;19.40;16.13;97275.88;5070570;28;19943;-85
2024/01/17 04:23:08;;;;;;;;;;;;;;;19.05;16.09;97281.94;5077273;28;19927;-85
2024/01/17 04:25:35;;;;;;;;;;;;;;;19.31;15.86;97272.81;5072166;28;19920;-85
2024/01/17 04:28:04;;;;;;;;;;;;;;;19.11;15.98;97277.50;5072589;28;20074;-85
2024/01/17 04:30:30;;;;;;;;;;;;;;;18.93;16.00;97274.16;5073145;28;20006;-84
2024/01/17 04:32:56;;;;;;;;;;;;;;;19.08;16.07;97279.13;5072381;28;20005;-85
2024/01/17 04:35:22;;;;;;;;;;;;;;;19.17;15.67;97273.81;5054328;28;19998;-85
2024/01/17 04:37:48;;;;;;;;;;;;;;;19.15;15.67;97273.47;5070390;28;19920;-85
2024/01/17 04:40:15;;;;;;;;;;;;;;;19.17;15.88;97259.91;5072432;28;19920;-85
2024/01/17 04:42:41;;;;;;;;;;;;;;;19.12;15.96;97263.16;5073297;28;19920;-85
2024/01/17 04:45:07;;;;;;;;;;;;;;;18.74;16.46;97253.38;5052291;28;19928;-85
2024/01/17 04:47:33;;;;;;;;;;;;;;;18.58;17.00;97254.00;5066572;28;20364;-85
2024/01/17 04:49:59;;;;;;;;;;;;;;;18.12;16.99;97250.97;5067962;28;19920;-85
2024/01/17 04:52:25;;;;;;;;;;;;;;;13.27;21.85;97256.78;5068704;28;19927;-85
2024/01/17 04:54:51;;;;;;;;;;;;;;;10.71;24.32;97272.25;5077760;28;19923;-85
2024/01/17 04:57:17;;;;;;;;;;;;;;;10.72;25.30;97271.09;5087664;28;19920;-85
2024/01/17 04:59:43;;;;;;;;;;;;;;;13.61;22.01;97260.19;5094442;28;20410;-85
2024/01/17 05:02:09;;;;;;;;;;;;;;;15.40;19.60;97257.22;5077702;28;20346;-85
2024/01/17 05:04:35;;;;;;;;;;;;;;;14.68;19.96;97252.00;5089040;28;19920;-85
2024/01/17 05:07:01;;;;;;;;;;;;;;;15.13;19.77;97244.97;5079246;28;20413;-85
2024/01/17 05:09:28;;;;;;;;;;;;;;;14.07;20.54;97243.91;5055385;28;20291;-84
2024/01/17 05:11:57;;;;;;;;;;;;;;;14.45;20.58;97229.47;5079267;28;19916;-86
2024/01/17 05:14:23;;;;;;;;;;;;;;;13.08;21.66;97224.75;5071389;28;20014;-86
2024/01/17 05:16:49;;;;;;;;;;;;;;;10.50;24.45;97236.22;5058752;28;19970;-86
2024/01/17 05:19:16;;;;;;;;;;;;;;;11.20;24.22;97236.63;5076506;28;19971;-87
2024/01/17 05:21:42;;;;;;;;;;;;;;;13.37;21.72;97233.25;5076584;28;19924;-86
2024/01/17 05:24:08;;;;;;;;;;;;;;;11.65;23.07;97227.44;5075571;28;19939;-86
2024/01/17 05:26:34;;;;;;;;;;;;;;;10.80;24.57;97230.84;5076658;28;19917;-87
2024/01/17 05:29:01;;;;;;;;;;;;;;;11.98;23.09;97227.53;5070129;28;19979;-86
2024/01/17 05:31:27;;;;;;;;;;;;;;;11.33;23.49;97221.50;5064874;28;19920;-84
2024/01/17 05:33:53;;;;;;;;;;;;;;;12.30;22.81;97211.38;5065704;28;20399;-84
2024/01/17 05:36:19;;;;;;;;;;;;;;;11.20;23.62;97220.13;5049806;28;19924;-84
2024/01/17 05:38:45;;;;;;;;;;;;;;;13.30;21.38;97208.38;5087291;28;19917;-83
2024/01/17 05:41:11;;;;;;;;;;;;;;;13.93;20.58;97205.19;5077242;28;19916;-82
2024/01/17 05:43:37;;;;;;;;;;;;;;;14.83;19.69;97205.88;5079358;28;19943;-82
2024/01/17 05:46:03;;;;;;;;;;;;;;;15.63;18.92;97191.22;5068466;28;19959;-84
2024/01/17 05:48:29;;;;;;;;;;;;;;;15.64;18.76;97181.72;5053695;28;19927;-84
2024/01/17 05:50:55;;;;;;;;;;;;;;;16.34;17.88;97183.44;5082038;28;20015;-82
2024/01/17 05:53:21;;;;;;;;;;;;;;;16.58;17.50;97170.66;5068595;28;19964;-81
2024/01/17 05:55:47;;;;;;;;;;;;;;;16.77;17.33;97172.91;5070836;28;19927;-83
2024/01/17 05:58:13;;;;;;;;;;;;;;;16.91;17.05;97158.16;5075851;28;19967;-84
2024/01/17 06:00:40;;;;;;;;;;;;;;;17.15;16.72;97163.47;5080782;28;19959;-84
2024/01/17 06:03:06;;;;;;;;;;;;;;;17.53;16.39;97161.56;5081334;28;19924;-84
2024/01/17 06:05:32;;;;;;;;;;;;;;;17.09;17.00;97162.34;5080169;28;19934;-84
2024/01/17 06:07:58;;;;;;;;;;;;;;;17.04;16.93;97162.78;5057686;28;19920;-84
2024/01/17 06:10:26;;;;;;;;;;;;;;;17.20;16.50;97160.25;5057711;28;20015;-84
2024/01/17 06:12:53;;;;;;;;;;;;;;;17.75;16.36;97156.56;5057970;28;19927;-84
2024/01/17 06:15:19;;;;;;;;;;;;;;;18.16;15.75;97162.00;5075068;28;19917;-84
2024/01/17 06:17:45;;;;;;;;;;;;;;;18.30;15.23;97162.63;5074257;28;19917;-84
2024/01/17 06:20:11;;;;;;;;;;;;;;;18.09;15.40;97154.56;5075039;28;19955;-84
2024/01/17 06:22:37;;;;;;;;;;;;;;;18.04;15.75;97159.81;5075052;28;19924;-84
2024/01/17 06:25:04;;;;;;;;;;;;;;;18.03;15.63;97159.00;5074559;28;19944;-84
2024/01/17 06:27:30;;;;;;;;;;;;;;;17.71;16.16;97159.38;5070600;28;20288;-84
2024/01/17 06:29:57;;;;;;;;;;;;;;;17.51;16.12;97157.59;5055361;28;19920;-85
2024/01/17 06:32:23;;;;;;;;;;;;;;;17.47;16.06;97156.84;5074064;28;20423;-84
2024/01/17 06:34:49;;;;;;;;;;;;;;;17.82;15.28;97153.72;5075250;28;19916;-84
2024/01/17 06:37:15;;;;;;;;;;;;;;;17.64;15.90;97150.34;5073991;28;19917;-84
2024/01/17 06:39:41;;;;;;;;;;;;;;;17.61;15.62;97156.72;5073942;28;20369;-84
2024/01/17 06:42:07;;;;;;;;;;;;;;;17.83;15.59;97144.94;5075165;28;19923;-84
2024/01/17 06:44:33;;;;;;;;;;;;;;;17.22;15.66;97152.31;5074870;28;19917;-84
2024/01/17 06:46:59;;;;;;;;;;;;;;;17.46;15.90;97144.94;5089674;28;20331;-84
2024/01/17 06:49:28;;;;;;;;;;;;;;;17.31;16.15;97145.50;5087396;28;19924;-84
2024/01/17 06:51:55;;;;;;;;;;;;;;;17.27;16.02;97137.22;5074872;28;19963;-84
2024/01/17 06:54:21;;;;;;;;;;;;;;;15.99;16.90;97130.19;5056864;28;20382;-84
2024/01/17 06:56:48;;;;;;;;;;;;;;;15.84;17.43;97121.97;5074550;28;20015;-84
2024/01/17 06:59:15;;;;;;;;;;;;;;;16.48;17.15;97113.28;5074554;28;19923;-83
2024/01/17 07:01:41;;;;;;;;;;;;;;;16.05;16.96;97112.00;5050826;28;19951;-84
2024/01/17 07:04:07;;;;;;;;;;;;;;;16.30;16.98;97109.84;5054772;28;19967;-84
2024/01/17 07:06:33;;;;;;;;;;;;;;;16.64;16.96;97105.28;5063364;28;19921;-84
2024/01/17 07:08:59;;;;;;;;;;;;;;;16.97;16.59;97104.63;5063512;28;20395;-84
2024/01/17 07:11:25;;;;;;;;;;;;;;;16.92;16.97;97105.06;5054232;28;19924;-84
2024/01/17 07:13:52;;;;;;;;;;;;;;;16.89;16.87;97097.56;5073464;28;19923;-84
2024/01/17 07:16:18;;;;;;;;;;;;;;;17.53;16.37;97094.94;5074508;28;19924;-84
2024/01/17 07:18:44;;;;;;;;;;;;;;;17.99;16.13;97080.50;5074569;28;20287;-84
2024/01/17 07:21:11;;;;;;;;;;;;;;;17.90;16.07;97080.22;5074353;28;20383;-84
2024/01/17 07:23:37;;;;;;;;;;;;;;;18.11;16.39;97070.81;5073646;28;19919;-84
2024/01/17 07:26:04;;;;;;;;;;;;;;;17.88;16.30;97060.41;5067687;28;19925;-84
2024/01/17 07:28:30;;;;;;;;;;;;;;;17.83;16.12;97066.41;5050369;28;19976;-84
2024/01/17 07:30:56;;;;;;;;;;;;;;;17.96;16.69;97064.69;5054085;28;19924;-84
2024/01/17 07:33:22;;;;;;;;;;;;;;;18.15;16.41;97055.69;5056605;28;19925;-84
2024/01/17 07:35:48;;;;;;;;;;;;;;;17.88;16.83;97054.84;5061322;28;19927;-84
2024/01/17 07:38:14;;;;;;;;;;;;;;;18.08;16.49;97058.56;5046744;28;20351;-84
2024/01/17 07:40:41;;;;;;;;;;;;;;;18.33;16.52;97053.41;5035285;28;20316;-84
2024/01/17 07:43:07;;;;;;;;;;;;;;;17.94;16.91;97047.66;5053793;28;19916;-84
2024/01/17 07:45:33;;;;;;;;;;;;;;;17.98;16.86;97048.38;5053444;28;19917;-84
2024/01/17 07:47:59;;;;;;;;;;;;;;;18.07;17.03;97045.88;5054082;28;20315;-84
2024/01/17 07:50:26;;;;;;;;;;;;;;;18.33;16.72;97047.06;5053530;28;19924;-83
2024/01/17 07:52:52;;;;;;;;;;;;;;;18.83;16.61;97042.31;5034386;28;19966;-84
2024/01/17 07:55:18;;;;;;;;;;;;;;;18.81;16.37;97038.38;5034919;28;19964;-84
2024/01/17 07:57:44;;;;;;;;;;;;;;;17.89;17.09;97025.91;5053050;28;19959;-84
2024/01/17 08:00:13;;;;;;;;;;;;;;;17.65;17.08;97027.81;5053053;28;19964;-84
2024/01/17 08:02:40;;;;;;;;;;;;;;;17.65;17.24;97027.00;5051414;28;19920;-85
2024/01/17 08:05:06;;;;;;;;;;;;;;;17.85;17.59;97030.72;5053740;28;20300;-85
2024/01/17 08:07:33;;;;;;;;;;;;;;;18.42;17.31;97025.88;5053834;28;20376;-84
2024/01/17 08:09:59;;;;;;;;;;;;;;;18.71;17.23;97022.66;5073453;28;20284;-84
2024/01/17 08:12:30;;;;;;;;;;;;;;;18.83;17.19;97022.84;5073421;28;19916;-84
2024/01/17 08:14:56;;;;;;;;;;;;;;;19.33;16.79;97017.91;5073361;28;19918;-84
2024/01/17 08:17:22;;;;;;;;;;;;;;;19.40;16.80;97005.88;5073456;28;19946;-83
2024/01/17 08:19:49;;;;;;;;;;;;;;;19.34;16.82;97004.78;5073595;28;19960;-84
2024/01/17 08:22:15;;;;;;;;;;;;;;;19.48;16.89;97001.75;5073231;28;19917;-84
2024/01/17 08:24:41;;;;;;;;;;;;;;;19.85;16.80;96994.97;5070651;28;19986;-84
2024/01/17 08:27:07;;;;;;;;;;;;;;;20.05;16.47;96987.34;5052302;28;19917;-84
2024/01/17 08:29:34;;;;;;;;;;;;;;;19.97;16.61;96988.75;5063330;28;19916;-84
2024/01/17 08:32:00;;;;;;;;;;;;;;;20.08;16.78;96980.13;5071912;28;20342;-84
2024/01/17 08:34:26;;;;;;;;;;;;;;;19.77;16.69;96976.84;5066882;28;19936;-84
2024/01/17 08:36:54;;;;;;;;;;;;;;;19.20;17.23;96966.13;5057836;28;20338;-84
2024/01/17 08:39:20;;;;;;;;;;;;;;;19.08;17.41;96966.75;5061479;28;19956;-83
2024/01/17 08:41:47;;;;;;;;;;;;;;;19.36;17.34;96957.06;5062309;28;19970;-83
2024/01/17 08:44:15;;;;;;;;;;;;;;;19.46;17.39;96951.28;5055842;28;19917;-84
2024/01/17 08:46:42;;;;;;;;;;;;;;;19.52;17.17;96957.91;5038480;28;19917;-84
2024/01/17 08:49:09;;;;;;;;;;;;;;;19.73;16.99;96951.88;5060939;28;20436;-84
2024/01/17 08:51:35;;;;;;;;;;;;;;;19.75;17.03;96943.06;5068531;28;20384;-83
2024/01/17 08:54:01;;;;;;;;;;;;;;;19.90;17.15;96942.34;5055918;28;19920;-83
2024/01/17 08:56:27;;;;;;;;;;;;;;;20.22;16.98;96940.81;5055689;28;19975;-83
2024/01/17 08:58:53;;;;;;;;;;;;;;;20.23;16.94;96939.59;5056798;28;20299;-83
2024/01/17 09:01:19;;;;;;;;;;;;;;;20.18;16.71;96937.31;5059108;28;19917;-84
2024/01/17 09:03:45;;;;;;;;;;;;;;;20.43;17.11;96926.34;5051952;28;19921;-83
2024/01/17 09:06:11;;;;;;;;;;;;;;;20.16;16.87;96926.59;5055923;28;20054;-83
2024/01/17 09:08:37;;;;;;;;;;;;;;;20.09;17.39;96921.19;5067977;28;19920;-83
2024/01/17 09:11:05;;;;;;;;;;;;;;;20.27;17.16;96918.78;5054412;28;20277;-83
2024/01/17 09:13:32;;;;;;;;;;;;;;;20.57;16.89;96920.41;5063599;28;19912;-83
2024/01/17 09:15:58;;;;;;;;;;;;;;;20.41;16.94;96915.63;5054128;28;19917;-83
2024/01/17 09:18:24;;;;;;;;;;;;;;;20.32;17.26;96917.47;5054058;28;19923;-83
2024/01/17 09:20:50;;;;;;;;;;;;;;;20.54;16.73;96916.47;5052057;28;19923;-83
2024/01/17 09:23:16;;;;;;;;;;;;;;;20.66;16.55;96901.03;5055441;28;20011;-83
2024/01/17 09:25:42;;;;;;;;;;;;;;;20.87;16.56;96891.28;5056425;28;19927;-83
2024/01/17 09:28:09;;;;;;;;;;;;;;;20.87;16.56;96894.88;5061419;28;20015;-84
2024/01/17 09:30:35;;;;;;;;;;;;;;;20.72;16.57;96884.56;5058358;28;19917;-83
2024/01/17 09:33:01;;;;;;;;;;;;;;;20.12;16.89;96877.75;5052140;28;20285;-84
2024/01/17 09:35:27;;;;;;;;;;;;;;;20.67;16.71;96872.72;5057747;28;19927;-83
2024/01/17 09:37:53;;;;;;;;;;;;;;;20.66;17.31;96857.19;5072492;28;19917;-83
2024/01/17 09:40:21;;;;;;;;;;;;;;;19.84;17.12;96852.13;5061352;28;19947;-83
2024/01/17 09:42:48;;;;;;;;;;;;;;;20.15;17.03;96838.63;5074170;28;19974;-83
2024/01/17 09:45:16;;;;;;;;;;;;;;;20.47;17.29;96833.03;5075834;28;19928;-83
2024/01/17 09:47:43;;;;;;;;;;;;;;;20.09;17.48;96837.59;5074971;28;19967;-84
2024/01/17 09:50:09;;;;;;;;;;;;;;;19.77;17.38;96830.03;5075472;28;20420;-84
2024/01/17 09:52:39;;;;;;;;;;;;;;;19.98;17.87;96828.72;5075593;28;19925;-84
2024/01/17 09:55:07;;;;;;;;;;;;;;;20.60;17.62;96808.78;5075349;28;20387;-83
2024/01/17 09:57:34;;;;;;;;;;;;;;;20.74;16.64;96798.41;5074241;28;20406;-84
2024/01/17 10:00:06;;;;;;;;;;;;;;;20.82;17.42;96792.19;5074565;28;19928;-83
2024/01/17 10:02:33;;;;;;;;;;;;;;;20.80;17.34;96789.06;5075297;28;19928;-83
2024/01/17 10:05:00;;;;;;;;;;;;;;;20.93;16.84;96791.88;5050734;28;19924;-83
2024/01/17 10:07:26;;;;;;;;;;;;;;;20.45;17.60;96776.13;5060070;28;19927;-84
2024/01/17 10:09:52;;;;;;;;;;;;;;;20.56;17.42;96773.84;5041512;28;20003;-83
2024/01/17 10:12:19;;;;;;;;;;;;;;;20.63;17.33;96760.47;5045892;28;20011;-84
2024/01/17 10:14:46;;;;;;;;;;;;;;;20.51;17.09;96758.41;5048164;28;19921;-84
2024/01/17 10:17:12;;;;;;;;;;;;;;;20.97;17.40;96761.88;5040223;28;19943;-84
2024/01/17 10:19:39;;;;;;;;;;;;;;;21.37;17.10;96756.66;5035012;28;19916;-84
2024/01/17 10:22:09;;;;;;;;;;;;;;;20.15;17.28;96759.81;5034564;28;20309;-84
2024/01/17 10:24:35;;;;;;;;;;;;;;;20.60;17.87;96760.56;5035125;28;20301;-84
2024/01/17 10:27:02;;;;;;;;;;;;;;;20.50;16.89;96742.13;5021404;28;19924;-84
2024/01/17 10:29:31;;;;;;;;;;;;;;;21.71;16.71;96743.53;5037923;28;19920;-84
2024/01/17 10:31:59;;;;;;;;;;;;;;;22.42;16.35;96733.50;5059055;28;19927;-84
2024/01/17 10:34:28;;;;;;;;;;;;;;;22.45;15.34;96732.56;5054965;28;19924;-84
2024/01/17 10:36:54;;;;;;;;;;;;;;;22.81;15.81;96728.47;5055564;28;19983;-85
2024/01/17 10:39:21;;;;;;;;;;;;;;;22.96;15.90;96724.69;5058797;28;19917;-86
2024/01/17 10:41:51;;;;;;;;;;;;;;;23.03;15.63;96715.22;5055436;28;19912;-84
2024/01/17 10:44:18;;;;;;;;;;;;;;;22.89;15.24;96702.56;5055386;28;20007;-84
2024/01/17 10:46:46;;;;;;;;;;;;;;;23.26;15.41;96704.28;5055589;28;19978;-85
2024/01/17 10:49:12;;;;;;;;;;;;;;;22.80;15.25;96698.94;5053611;28;19932;-84
2024/01/17 10:51:40;;;;;;;;;;;;;;;22.50;15.43;96692.03;5036685;28;19917;-83
2024/01/17 10:54:08;;;;;;;;;;;;;;;22.78;15.54;96687.41;5055240;28;19913;-84
2024/01/17 10:56:38;;;;;;;;;;;;;;;22.72;15.89;96681.63;5054880;28;19917;-85
2024/01/17 10:59:05;;;;;;;;;;;;;;;22.34;16.06;96676.25;5054845;28;19963;-84
2024/01/17 11:01:33;;;;;;;;;;;;;;;22.60;15.85;96663.69;5071130;28;20287;-84
2024/01/17 11:04:07;;;;;;;;;;;;;;;22.57;15.58;96655.41;5074325;28;19916;-84
2024/01/17 11:06:34;;;;;;;;;;;;;;;22.98;16.03;96646.63;5068758;28;19932;-83
2024/01/17 11:09:00;;;;;;;;;;;;;;;23.34;15.59;96635.53;5065542;28;19921;-84
2024/01/17 11:11:27;;;;;;;;;;;;;;;22.19;15.65;96624.91;5074575;28;19923;-83
2024/01/17 11:13:53;;;;;;;;;;;;;;;22.74;15.66;96620.38;5074472;28;19920;-83
2024/01/17 11:16:20;;;;;;;;;;;;;;;22.49;15.45;96614.97;5064483;28;19924;-82
2024/01/17 11:18:49;;;;;;;;;;;;;;;22.68;15.09;96611.81;5074560;28;20007;-83
2024/01/17 11:21:15;;;;;;;;;;;;;;;23.28;15.68;96608.59;5056018;28;19924;-83
2024/01/17 11:23:46;;;;;;;;;;;;;;;23.16;14.95;96610.28;5074096;28;19912;-83
2024/01/17 11:26:12;;;;;;;;;;;;;;;23.81;15.50;96589.50;5074214;28;19916;-83
2024/01/17 11:28:43;;;;;;;;;;;;;;;23.77;14.67;96603.69;5074197;28;19920;-83
2024/01/17 11:31:12;;;;;;;;;;;;;;;23.72;14.69;96584.69;5074216;28;20265;-83
2024/01/17 11:33:39;;;;;;;;;;;;;;;23.20;14.94;96587.72;5074252;28;19917;-84
2024/01/17 11:36:05;;;;;;;;;;;;;;;22.84;15.13;96582.03;5073767;28;19987;-83
2024/01/17 11:38:32;;;;;;;;;;;;;;;22.88;15.44;96579.84;5073496;28;19956;-83
2024/01/17 11:41:00;;;;;;;;;;;;;;;22.39;15.49;96569.41;5073769;28;20390;-83
2024/01/17 11:43:31;;;;;;;;;;;;;;;22.50;16.10;96569.75;5073929;28;19924;-83
2024/01/17 11:45:59;;;;;;;;;;;;;;;23.38;15.96;96556.19;5074224;28;19916;-85
2024/01/17 11:48:29;;;;;;;;;;;;;;;23.55;15.52;96551.84;5076259;28;19916;-84
2024/01/17 11:51:01;;;;;;;;;;;;;;;22.63;15.58;96542.50;5080493;28;19917;-84
2024/01/17 11:53:28;;;;;;;;;;;;;;;22.79;16.17;96537.84;5064088;28;19920;-83
2024/01/17 11:55:58;;;;;;;;;;;;;;;23.08;15.48;96525.00;5064592;28;20384;-84
2024/01/17 11:58:39;;;;;;;;;;;;;;;23.26;15.76;96521.47;5071362;28;20296;-81
2024/01/17 12:01:06;;;;;;;;;;;;;;;23.21;15.82;96508.84;5070861;28;19920;-84
2024/01/17 12:03:32;;;;;;;;;;;;;;;22.56;15.86;96516.78;5069017;28;19993;-84
2024/01/17 12:05:59;;;;;;;;;;;;;;;22.40;16.10;96505.84;5068197;28;20329;-84
2024/01/17 12:08:26;;;;;;;;;;;;;;;23.03;15.59;96497.66;5064321;28;20376;-86
2024/01/17 12:10:53;;;;;;;;;;;;;;;23.78;15.50;96492.34;5064583;28;19948;-87
2024/01/17 12:13:19;;;;;;;;;;;;;;;23.48;15.02;96491.28;5064329;28;19913;-84
2024/01/17 12:15:46;;;;;;;;;;;;;;;23.34;15.52;96481.50;5064333;28;19921;-87
2024/01/17 12:18:12;;;;;;;;;;;;;;;23.52;15.31;96479.94;5063863;28;19917;-86
2024/01/17 12:20:38;;;;;;;;;;;;;;;23.69;15.39;96467.91;5069154;28;19925;-86
2024/01/17 12:23:08;;;;;;;;;;;;;;;23.64;14.68;96474.16;5066999;28;20019;-87
2024/01/17 12:25:34;;;;;;;;;;;;;;;23.83;15.12;96466.47;5053643;28;20403;-86
2024/01/17 12:28:02;;;;;;;;;;;;;;;23.31;15.29;96460.00;5054476;28;20381;-86
2024/01/17 12:30:28;;;;;;;;;;;;;;;22.77;15.54;96448.00;5047008;28;19920;-87
2024/01/17 12:32:55;;;;;;;;;;;;;;;22.71;16.32;96447.84;5058797;28;20237;-91
2024/01/17 12:35:21;;;;;;;;;;;;;;;22.93;16.03;96448.50;5072143;28;19925;-89
2024/01/17 12:37:47;;;;;;;;;;;;;;;23.11;15.56;96442.13;5064239;28;19920;-89
2024/01/17 12:40:13;;;;;;;;;;;;;;;22.60;15.93;96430.69;5065934;28;19920;-89
2024/01/17 12:42:39;;;;;;;;;;;;;;;22.95;15.66;96428.44;5061515;28;20066;-87
2024/01/17 12:45:06;;;;;;;;;;;;;;;22.52;16.08;96419.03;5068966;28;20495;-91